Airfield :
LOGIN :

Register | Disclaimer

   EN    FR    IT 

 










Legend :    VFR   Marginal VFR   IFR   Intensive IFR   Very Intensive IFR
Visi :
Ceiling :
>= 8 km
>= 3000ft
5 to 8 km
1000 to 3000 ft
1500m to 5 km
500 to 1000 ft
800 to 1500m
200 to 500 ft
< 800m
< 200 ft
Symbols :   Thunderstorms  Fog  Heavy snow  Heavy precipitations  Wind > 20 kt
SIGMETs :     Misc.  Thunderstorms  Icing  Turbulence  Mountain Waves  Volcanic Ashes







- Airport Elevation : 200 ft


EBBL - Klein Brogel AB

CURRENT METAR :
  • 202055Z AUTO VRB02KT 9999 NCD 13/10 Q1026 BLU

EXPIRED METARs :
  • 202025Z AUTO VRB01KT 9999 BKN052/// 15/09 Q1026 BLU
  • 202024Z AUTO VRB01KT 9999 BKN052/// 15/10 Q1026 BLU
  • 201955Z AUTO VRB02KT 9999 SCT062/// BKN095/// 15/10 Q1026 BLU
  • 201925Z AUTO VRB02KT 9999 BKN094/// 16/09 Q1026 BLU
  • 201918Z AUTO VRB02KT 6000 BKN093/// 16/09 Q1026 WHT
  • 201907Z AUTO 31003KT 3300 FEW058/// BKN093/// 16/09 Q1025 YLO
  • 201855Z AUTO VRB02KT 9999 FEW057/// BKN092/// 17/09 Q1025 BLU
  • 201825Z AUTO 30003KT 9999 SCT053/// BKN094/// 18/09 Q1025 BLU

TAF TAF EBBL
Valid from the 20 at 19:00 until the 21 at 07:00 UTC


201541Z 2019/2107 27009KT 9999 FEW030 SCT045
PROB30
TEMPO 2019/2022 6000 -SHRA SCT030 BKN045
BECMG 2022/2100 24005KT 9999 SKC
No reported NOTAMs for that airfield.



MET'MAP, your aeronautical weather chart ! - Copyright ORBIFLY December 2007 - Disclaimer

ORBIFLY MET'MAP TEAM :

Programming & Development : Alexandra Zaïnal
Concept & Development : Baudouin d'Aumeries
Co-Development & Prog : Marc-Olivier Méhu
Technical & hardware support : Manuel Goepfert

Contact : metmap@orbifly.com




SOURCES & CREDITS :

   NOAA